Terminal Aerodrome Forecast
Issued by NWS

Home | Current Version | Previous Version | Text Only | Print | Product List | Glossary On
Versions: 1 2 3 4 5 6 7 8 9 10 11 12 13 14
649
FTUS44 KTSA 260404 AAA
TAFBVO
TAF AMD
KBVO 260404Z 2604/2624 VRB03KT P6SM SCT050 BKN150
     FM261000 VRB03KT P6SM BKN250
     FM261600 08005KT P6SM BKN050 PROB30 2618/2624 4SM TSRA
      BKN050CB=

USA.gov is the U.S. government's official web portal to all federal, state and local government web resources and services.